createdAt,value
2019-05-25T00:00:11.647Z,19.87
2019-05-25T00:01:11.585Z,19.87
2019-05-25T00:02:11.579Z,19.88
2019-05-25T00:03:11.570Z,19.88
2019-05-25T00:04:11.560Z,19.87
2019-05-25T00:05:11.540Z,19.88
2019-05-25T00:06:11.810Z,19.88
2019-05-25T00:07:11.550Z,19.86
2019-05-25T00:08:11.510Z,19.86
2019-05-25T00:09:11.504Z,19.86
2019-05-25T00:10:11.490Z,19.86
2019-05-25T00:11:11.478Z,19.86
2019-05-25T00:12:11.499Z,19.87
2019-05-25T00:13:11.522Z,19.86
2019-05-25T00:14:11.495Z,19.86
2019-05-25T00:15:11.441Z,19.84
2019-05-25T00:16:11.429Z,19.84
2019-05-25T00:17:11.439Z,19.86
2019-05-25T00:18:11.404Z,19.84
2019-05-25T00:19:11.387Z,19.84
2019-05-25T00:20:11.405Z,19.86
2019-05-25T00:21:14.022Z,19.86
2019-05-25T00:22:11.360Z,19.83
2019-05-25T00:23:11.349Z,19.84
2019-05-25T00:24:12.794Z,19.84
2019-05-25T00:25:11.342Z,19.83
2019-05-25T00:26:11.362Z,19.81
2019-05-25T00:27:11.309Z,19.83
2019-05-25T00:28:11.293Z,19.81
2019-05-25T00:29:11.288Z,19.83
2019-05-25T00:30:11.269Z,19.83
2019-05-25T00:31:11.260Z,19.81
2019-05-25T00:32:11.284Z,19.81
2019-05-25T00:33:11.243Z,19.81
2019-05-25T00:34:11.535Z,19.80
2019-05-25T00:35:11.225Z,19.81
2019-05-25T00:36:11.207Z,19.81
2019-05-25T00:37:11.193Z,19.80
2019-05-25T00:38:11.236Z,19.80
2019-05-25T00:39:11.178Z,19.80
2019-05-25T00:40:11.167Z,19.81
2019-05-25T00:41:11.149Z,19.80
2019-05-25T00:42:11.140Z,19.80
2019-05-25T00:43:11.126Z,19.78
2019-05-25T00:44:11.143Z,19.78
2019-05-25T00:45:11.105Z,19.78
2019-05-25T00:46:11.131Z,19.78
2019-05-25T00:47:11.086Z,19.78
2019-05-25T00:48:11.099Z,19.77
2019-05-25T00:49:11.064Z,19.78
2019-05-25T00:50:11.082Z,19.78
2019-05-25T00:51:11.046Z,19.78
2019-05-25T00:52:11.034Z,19.78
2019-05-25T00:53:11.025Z,19.77
2019-05-25T00:54:25.358Z,19.77
2019-05-25T00:55:12.046Z,19.77
2019-05-25T00:56:10.988Z,19.77
2019-05-25T00:57:10.977Z,19.77
2019-05-25T00:58:10.967Z,19.78
2019-05-25T00:59:10.975Z,19.77
2019-05-25T01:00:10.947Z,19.77
2019-05-25T01:01:10.985Z,19.77
2019-05-25T01:02:10.926Z,19.76
2019-05-25T01:03:10.910Z,19.76
2019-05-25T01:04:10.912Z,19.76
2019-05-25T01:05:10.895Z,19.76
2019-05-25T01:06:10.904Z,19.76
2019-05-25T01:07:10.872Z,19.76
2019-05-25T01:08:10.862Z,19.77
2019-05-25T01:09:10.844Z,19.76
2019-05-25T01:10:10.833Z,19.76
2019-05-25T01:11:10.879Z,19.74
2019-05-25T01:12:10.816Z,19.76
2019-05-25T01:13:10.798Z,19.76
2019-05-25T01:14:10.786Z,19.74
2019-05-25T01:15:10.785Z,19.76
2019-05-25T01:16:10.772Z,19.76
2019-05-25T01:17:10.790Z,19.74
2019-05-25T01:18:10.751Z,19.74
2019-05-25T01:19:10.738Z,19.74
2019-05-25T01:20:10.725Z,19.73
2019-05-25T01:21:10.714Z,19.74
2019-05-25T01:22:10.704Z,19.74
2019-05-25T01:23:10.724Z,19.74
2019-05-25T01:24:10.695Z,19.74
2019-05-25T01:25:10.707Z,19.76
2019-05-25T01:26:10.659Z,19.73
2019-05-25T01:27:10.647Z,19.73
2019-05-25T01:28:10.654Z,19.73
2019-05-25T01:29:10.625Z,19.73
2019-05-25T01:30:10.649Z,19.73
2019-05-25T01:31:10.650Z,19.73
2019-05-25T01:32:10.595Z,19.71
2019-05-25T01:33:10.584Z,19.73
2019-05-25T01:34:10.620Z,19.74
2019-05-25T01:35:10.586Z,19.73
2019-05-25T01:36:10.593Z,19.73
2019-05-25T01:37:10.552Z,19.73
2019-05-25T01:38:10.527Z,19.71
2019-05-25T01:39:10.523Z,19.71
2019-05-25T01:40:10.508Z,19.71
2019-05-25T01:41:10.502Z,19.71
2019-05-25T01:42:10.520Z,19.73
2019-05-25T01:43:10.476Z,19.71
2019-05-25T01:44:10.468Z,19.71
2019-05-25T01:45:10.458Z,19.71
2019-05-25T01:46:10.444Z,19.73
2019-05-25T01:47:10.484Z,19.69
2019-05-25T01:48:10.420Z,19.69
2019-05-25T01:49:10.418Z,19.69
2019-05-25T01:50:10.398Z,19.73
2019-05-25T01:51:10.390Z,19.71
2019-05-25T01:52:10.378Z,19.69
2019-05-25T01:53:11.727Z,19.69
2019-05-25T01:54:10.362Z,19.71
2019-05-25T01:55:10.349Z,19.71
2019-05-25T01:56:10.332Z,19.69
2019-05-25T01:57:10.325Z,19.69
2019-05-25T01:58:10.317Z,19.71
2019-05-25T01:59:10.345Z,19.69
2019-05-25T02:00:10.296Z,19.69
2019-05-25T02:01:10.282Z,19.71
2019-05-25T02:02:10.269Z,19.69
2019-05-25T02:03:10.257Z,19.68
2019-05-25T02:04:10.249Z,19.68
2019-05-25T02:05:10.263Z,19.68
2019-05-25T02:06:10.228Z,19.69
2019-05-25T02:07:10.238Z,19.69
2019-05-25T02:08:10.233Z,19.69
2019-05-25T02:09:10.192Z,19.69
2019-05-25T02:10:10.190Z,19.69
2019-05-25T02:11:10.171Z,19.69
2019-05-25T02:12:10.161Z,19.68
2019-05-25T02:13:10.148Z,19.68
2019-05-25T02:14:10.181Z,19.68
2019-05-25T02:15:10.127Z,19.69
2019-05-25T02:16:10.112Z,19.68
2019-05-25T02:17:10.106Z,19.69
2019-05-25T02:18:10.095Z,19.68
2019-05-25T02:19:10.085Z,19.68
2019-05-25T02:20:10.110Z,19.68
2019-05-25T02:21:10.060Z,19.68
2019-05-25T02:22:10.049Z,19.68
2019-05-25T02:23:10.039Z,19.68
2019-05-25T02:24:10.033Z,19.66
2019-05-25T02:25:17.802Z,19.68
2019-05-25T02:26:11.036Z,19.68
2019-05-25T02:27:10.004Z,19.68
2019-05-25T02:28:09.983Z,19.66
2019-05-25T02:29:09.975Z,19.66
2019-05-25T02:30:09.990Z,19.65
2019-05-25T02:31:09.989Z,19.66
2019-05-25T02:32:09.942Z,19.68
2019-05-25T02:33:09.931Z,19.68
2019-05-25T02:34:24.446Z,19.66
2019-05-25T02:35:09.910Z,19.66
2019-05-25T02:36:09.895Z,19.66
2019-05-25T02:37:09.904Z,19.66
2019-05-25T02:38:09.916Z,19.65
2019-05-25T02:39:09.862Z,19.66
2019-05-25T02:40:09.853Z,19.65
2019-05-25T02:41:09.842Z,19.65
2019-05-25T02:42:09.833Z,19.65
2019-05-25T02:43:09.823Z,19.65
2019-05-25T02:44:09.834Z,19.65
2019-05-25T02:45:09.803Z,19.65
2019-05-25T02:46:09.790Z,19.65
2019-05-25T02:47:09.775Z,19.65
2019-05-25T02:48:09.767Z,19.65
2019-05-25T02:49:09.760Z,19.65
2019-05-25T02:50:09.763Z,19.65
2019-05-25T02:51:09.734Z,19.63
2019-05-25T02:52:09.728Z,19.65
2019-05-25T02:53:09.728Z,19.65
2019-05-25T02:54:09.712Z,19.62
2019-05-25T02:55:09.714Z,19.63
2019-05-25T02:56:09.680Z,19.65
2019-05-25T02:57:09.665Z,19.65
2019-05-25T02:58:09.654Z,19.63
2019-05-25T02:59:09.649Z,19.65
2019-05-25T03:00:09.667Z,19.63
2019-05-25T03:01:09.624Z,19.62
2019-05-25T03:02:09.623Z,19.63
2019-05-25T03:03:09.605Z,19.63
2019-05-25T03:04:09.594Z,19.62
2019-05-25T03:05:09.577Z,19.63
2019-05-25T03:06:09.635Z,19.63
2019-05-25T03:07:09.562Z,19.62
2019-05-25T03:08:09.557Z,19.62
2019-05-25T03:09:09.543Z,19.63
2019-05-25T03:10:09.523Z,19.62
2019-05-25T03:11:09.512Z,19.63
2019-05-25T03:12:09.524Z,19.62
2019-05-25T03:13:09.492Z,19.62
2019-05-25T03:14:09.481Z,19.62
2019-05-25T03:15:09.494Z,19.62
2019-05-25T03:16:09.466Z,19.61
2019-05-25T03:17:09.461Z,19.62
2019-05-25T03:18:09.440Z,19.62
2019-05-25T03:19:09.426Z,19.61
2019-05-25T03:20:09.418Z,19.61
2019-05-25T03:21:09.443Z,19.63
2019-05-25T03:22:09.398Z,19.61
2019-05-25T03:23:09.389Z,19.61
2019-05-25T03:24:09.377Z,19.62
2019-05-25T03:25:09.360Z,19.62
2019-05-25T03:26:09.381Z,19.62
2019-05-25T03:27:09.359Z,19.61
2019-05-25T03:28:09.347Z,19.61
2019-05-25T03:29:09.319Z,19.61
2019-05-25T03:30:09.337Z,19.62
2019-05-25T03:31:09.298Z,19.62
2019-05-25T03:32:09.283Z,19.62
2019-05-25T03:33:09.304Z,19.62
2019-05-25T03:34:09.264Z,19.62
2019-05-25T03:35:09.251Z,19.61
2019-05-25T03:36:09.246Z,19.62
2019-05-25T03:37:09.233Z,19.62
2019-05-25T03:38:09.240Z,19.61
2019-05-25T03:39:09.209Z,19.61
2019-05-25T03:40:09.201Z,19.59
2019-05-25T03:41:09.190Z,19.61
2019-05-25T03:42:09.174Z,19.61
2019-05-25T03:43:09.165Z,19.59
2019-05-25T03:44:09.181Z,19.62
2019-05-25T03:45:09.142Z,19.62
2019-05-25T03:46:09.134Z,19.61
2019-05-25T03:47:09.122Z,19.62
2019-05-25T03:48:09.118Z,19.61
2019-05-25T03:49:09.119Z,19.59
2019-05-25T03:50:09.123Z,19.61
2019-05-25T03:51:09.076Z,19.62
2019-05-25T03:52:09.072Z,19.59
2019-05-25T03:53:09.061Z,19.61
2019-05-25T03:54:09.051Z,19.59
2019-05-25T03:55:09.039Z,19.61
2019-05-25T03:56:09.049Z,19.61
2019-05-25T03:57:09.012Z,19.59
2019-05-25T03:58:09.005Z,19.59
2019-05-25T03:59:08.990Z,19.59
2019-05-25T04:00:08.978Z,19.59
2019-05-25T04:01:09.000Z,19.59
2019-05-25T04:02:08.981Z,19.59
2019-05-25T04:03:08.976Z,19.59
2019-05-25T04:04:08.935Z,19.59
2019-05-25T04:05:08.936Z,19.59
2019-05-25T04:06:08.938Z,19.61
2019-05-25T04:07:08.926Z,19.59
2019-05-25T04:08:08.899Z,19.58
2019-05-25T04:09:08.888Z,19.59
2019-05-25T04:10:08.874Z,19.59
2019-05-25T04:11:08.865Z,19.59
2019-05-25T04:12:08.876Z,19.59
2019-05-25T04:13:08.836Z,19.59
2019-05-25T04:14:08.829Z,19.59
2019-05-25T04:15:08.825Z,19.59
2019-05-25T04:16:08.803Z,19.58
2019-05-25T04:17:08.815Z,19.59
2019-05-25T04:18:08.785Z,19.59
2019-05-25T04:19:08.782Z,19.59
2019-05-25T04:20:08.758Z,19.59
2019-05-25T04:21:08.755Z,19.59
2019-05-25T04:22:08.742Z,19.59
2019-05-25T04:23:08.752Z,19.59
2019-05-25T04:24:08.716Z,19.58
2019-05-25T04:25:08.716Z,19.59
2019-05-25T04:26:22.205Z,19.59
2019-05-25T04:27:09.711Z,19.58
2019-05-25T04:28:08.674Z,19.58
2019-05-25T04:29:08.662Z,19.59
2019-05-25T04:30:08.658Z,19.59
2019-05-25T04:31:08.648Z,19.59
2019-05-25T04:32:08.632Z,19.59
2019-05-25T04:33:08.647Z,19.58
2019-05-25T04:34:08.615Z,19.58
2019-05-25T04:35:08.614Z,19.58
2019-05-25T04:36:08.588Z,19.58
2019-05-25T04:37:08.577Z,19.58
2019-05-25T04:38:08.567Z,19.58
2019-05-25T04:39:08.576Z,19.58
2019-05-25T04:40:08.548Z,19.58
2019-05-25T04:41:08.535Z,19.58
2019-05-25T04:42:08.522Z,19.58
2019-05-25T04:43:08.515Z,19.59
2019-05-25T04:44:08.503Z,19.58
2019-05-25T04:45:08.539Z,19.58
2019-05-25T04:46:08.476Z,19.58
2019-05-25T04:47:08.462Z,19.59
2019-05-25T04:48:08.488Z,19.58
2019-05-25T04:49:08.440Z,19.56
2019-05-25T04:50:08.435Z,19.58
2019-05-25T04:51:08.446Z,19.58
2019-05-25T04:52:08.414Z,19.56
2019-05-25T04:53:08.407Z,19.56
2019-05-25T04:54:08.390Z,19.58
2019-05-25T04:55:08.376Z,19.58
2019-05-25T04:56:08.370Z,19.58
2019-05-25T04:57:08.681Z,19.58
2019-05-25T04:58:08.359Z,19.58
2019-05-25T04:59:08.335Z,19.58
2019-05-25T05:00:08.330Z,19.56
2019-05-25T05:01:08.308Z,19.58
2019-05-25T05:02:08.352Z,19.56
2019-05-25T05:03:08.329Z,19.58
2019-05-25T05:04:08.285Z,19.58
2019-05-25T05:05:08.270Z,19.58
2019-05-25T05:06:08.254Z,19.56
2019-05-25T05:07:08.246Z,19.58
2019-05-25T05:08:08.238Z,19.58
2019-05-25T05:09:08.247Z,19.56
2019-05-25T05:10:08.223Z,19.58
2019-05-25T05:11:08.210Z,19.56
2019-05-25T05:12:08.194Z,19.56
2019-05-25T05:13:08.182Z,19.56
2019-05-25T05:14:08.188Z,19.56
2019-05-25T05:15:08.156Z,19.58
2019-05-25T05:16:08.151Z,19.56
2019-05-25T05:17:08.141Z,19.56
2019-05-25T05:18:08.132Z,19.56
2019-05-25T05:19:08.135Z,19.56
2019-05-25T05:20:08.108Z,19.58
2019-05-25T05:21:08.104Z,19.56
2019-05-25T05:22:08.088Z,19.56
2019-05-25T05:23:08.071Z,19.58
2019-05-25T05:24:08.061Z,19.56
2019-05-25T05:25:08.954Z,19.56
2019-05-25T05:26:08.047Z,19.56
2019-05-25T05:27:08.032Z,19.56
2019-05-25T05:28:08.014Z,19.55
2019-05-25T05:29:08.011Z,19.56
2019-05-25T05:30:08.020Z,19.56
2019-05-25T05:31:22.813Z,19.56
2019-05-25T05:32:08.974Z,19.56
2019-05-25T05:33:07.963Z,19.56
2019-05-25T05:34:07.953Z,19.58
2019-05-25T05:35:08.021Z,19.55
2019-05-25T05:36:07.955Z,19.56
2019-05-25T05:37:07.927Z,19.58
2019-05-25T05:38:07.914Z,19.56
2019-05-25T05:39:07.899Z,19.56
2019-05-25T05:40:07.904Z,19.56
2019-05-25T05:41:07.877Z,19.56
2019-05-25T05:42:07.890Z,19.56
2019-05-25T05:43:07.859Z,19.55
2019-05-25T05:44:07.864Z,19.56
2019-05-25T05:45:07.836Z,19.56
2019-05-25T05:46:07.827Z,19.55
2019-05-25T05:47:10.446Z,19.56
2019-05-25T05:48:07.838Z,19.56
2019-05-25T05:49:07.791Z,19.55
2019-05-25T05:50:07.780Z,19.56
2019-05-25T05:51:07.771Z,19.56
2019-05-25T05:52:07.757Z,19.56
2019-05-25T05:53:07.748Z,19.56
2019-05-25T05:54:07.771Z,19.55
2019-05-25T05:55:07.729Z,19.55
2019-05-25T05:56:07.716Z,19.56
2019-05-25T05:57:12.236Z,19.55
2019-05-25T05:58:08.697Z,19.55
2019-05-25T05:59:07.683Z,19.55
2019-05-25T06:00:07.701Z,19.55
2019-05-25T06:01:07.662Z,19.55
2019-05-25T06:02:07.647Z,19.55
2019-05-25T06:03:07.641Z,19.56
2019-05-25T06:04:07.670Z,19.56
2019-05-25T06:05:07.614Z,19.55
2019-05-25T06:06:07.611Z,19.55
2019-05-25T06:07:07.607Z,19.55
2019-05-25T06:08:07.587Z,19.55
2019-05-25T06:09:07.590Z,19.56
2019-05-25T06:10:07.562Z,19.55
2019-05-25T06:11:07.550Z,19.56
2019-05-25T06:12:07.545Z,19.56
2019-05-25T06:13:07.534Z,19.55
2019-05-25T06:14:07.518Z,19.56
2019-05-25T06:15:07.524Z,19.55
2019-05-25T06:16:07.495Z,19.55
2019-05-25T06:17:07.508Z,19.55
2019-05-25T06:18:07.477Z,19.55
2019-05-25T06:19:07.463Z,19.54
2019-05-25T06:20:07.486Z,19.55
2019-05-25T06:21:07.447Z,19.55
2019-05-25T06:22:07.433Z,19.55
2019-05-25T06:23:12.073Z,19.55
2019-05-25T06:24:08.405Z,19.55
2019-05-25T06:25:07.405Z,19.55
2019-05-25T06:26:07.415Z,19.56
2019-05-25T06:27:07.383Z,19.56
2019-05-25T06:28:07.370Z,19.55
2019-05-25T06:29:07.359Z,19.55
2019-05-25T06:30:07.346Z,19.54
2019-05-25T06:31:07.332Z,19.55
2019-05-25T06:32:07.340Z,19.55
2019-05-25T06:33:07.306Z,19.55
2019-05-25T06:34:07.301Z,19.55
2019-05-25T06:35:07.290Z,19.54
2019-05-25T06:36:07.280Z,19.55
2019-05-25T06:37:07.294Z,19.55
2019-05-25T06:38:07.256Z,19.55
2019-05-25T06:39:07.243Z,19.56
2019-05-25T06:40:07.250Z,19.55
2019-05-25T06:41:08.831Z,19.55
2019-05-25T06:42:07.209Z,19.55
2019-05-25T06:43:07.219Z,19.55
2019-05-25T06:44:07.196Z,19.55
2019-05-25T06:45:07.189Z,19.55
2019-05-25T06:46:07.181Z,19.55
2019-05-25T06:47:07.158Z,19.55
2019-05-25T06:48:07.187Z,19.55
2019-05-25T06:49:07.138Z,19.55
2019-05-25T06:50:07.127Z,19.54
2019-05-25T06:51:07.122Z,19.55
2019-05-25T06:52:07.105Z,19.55
2019-05-25T06:53:07.097Z,19.54
2019-05-25T06:54:07.106Z,19.55
2019-05-25T06:55:07.073Z,19.55
2019-05-25T06:56:07.061Z,19.55
2019-05-25T06:57:07.056Z,19.55
2019-05-25T06:58:07.037Z,19.56
2019-05-25T06:59:07.067Z,19.54
2019-05-25T07:00:07.017Z,19.54
2019-05-25T07:01:07.002Z,19.54
2019-05-25T07:02:06.995Z,19.54
2019-05-25T07:03:06.993Z,19.55
2019-05-25T07:04:06.976Z,19.55
2019-05-25T07:05:06.982Z,19.55
2019-05-25T07:06:06.958Z,19.55
2019-05-25T07:07:06.952Z,19.55
2019-05-25T07:08:06.962Z,19.54
2019-05-25T07:09:06.923Z,19.55
2019-05-25T07:10:06.911Z,19.55
2019-05-25T07:11:06.894Z,19.55
2019-05-25T07:12:06.882Z,19.54
2019-05-25T07:13:06.877Z,19.55
2019-05-25T07:14:06.891Z,19.55
2019-05-25T07:15:06.859Z,19.56
2019-05-25T07:16:06.841Z,19.58
2019-05-25T07:17:06.828Z,19.58
2019-05-25T07:18:06.817Z,19.58
2019-05-25T07:19:06.808Z,19.56
2019-05-25T07:20:06.835Z,19.58
2019-05-25T07:21:06.791Z,19.58
2019-05-25T07:22:06.777Z,19.56
2019-05-25T07:23:06.765Z,19.58
2019-05-25T07:24:06.758Z,19.59
2019-05-25T07:25:06.749Z,19.59
2019-05-25T07:26:06.779Z,19.59
2019-05-25T07:27:06.718Z,19.59
2019-05-25T07:28:06.708Z,19.58
2019-05-25T07:29:06.701Z,19.61
2019-05-25T07:30:07.202Z,19.62
2019-05-25T07:31:06.714Z,19.61
2019-05-25T07:32:06.672Z,19.63
2019-05-25T07:33:06.667Z,19.63
2019-05-25T07:34:06.642Z,19.62
2019-05-25T07:35:06.638Z,19.65
2019-05-25T07:36:07.728Z,19.63
2019-05-25T07:37:06.641Z,19.65
2019-05-25T07:38:06.606Z,19.66
2019-05-25T07:39:06.593Z,19.65
2019-05-25T07:40:06.577Z,19.66
2019-05-25T07:41:06.571Z,19.65
2019-05-25T07:42:06.618Z,19.66
2019-05-25T07:43:06.572Z,19.66
2019-05-25T07:44:06.538Z,19.66
2019-05-25T07:45:06.522Z,19.68
2019-05-25T07:46:06.513Z,19.66
2019-05-25T07:47:06.505Z,19.66
2019-05-25T07:48:06.495Z,19.66
2019-05-25T07:49:06.512Z,19.66
2019-05-25T07:50:06.469Z,19.69
2019-05-25T07:51:06.460Z,19.69
2019-05-25T07:52:06.452Z,19.71
2019-05-25T07:53:06.441Z,19.69
2019-05-25T07:54:06.427Z,19.69
2019-05-25T07:55:06.452Z,19.71
2019-05-25T07:56:06.407Z,19.71
2019-05-25T07:57:06.392Z,19.69
2019-05-25T07:58:16.964Z,19.69
2019-05-25T07:59:07.374Z,19.69
2019-05-25T08:00:06.375Z,19.71
2019-05-25T08:01:06.372Z,19.69
2019-05-25T08:02:06.342Z,19.71
2019-05-25T08:03:06.327Z,19.71
2019-05-25T08:04:06.323Z,19.73
2019-05-25T08:05:06.308Z,19.73
2019-05-25T08:06:06.317Z,19.74
2019-05-25T08:07:06.314Z,19.73
2019-05-25T08:08:06.281Z,19.74
2019-05-25T08:09:06.268Z,19.73
2019-05-25T08:10:06.257Z,19.74
2019-05-25T08:11:06.243Z,19.74
2019-05-25T08:12:06.253Z,19.76
2019-05-25T08:13:06.238Z,19.76
2019-05-25T08:14:06.215Z,19.76
2019-05-25T08:15:06.223Z,19.77
2019-05-25T08:16:06.193Z,19.77
2019-05-25T08:17:06.178Z,19.77
2019-05-25T08:18:06.170Z,19.77
2019-05-25T08:19:06.155Z,19.78
2019-05-25T08:20:06.166Z,19.78
2019-05-25T08:21:06.138Z,19.80
2019-05-25T08:22:06.146Z,19.80
2019-05-25T08:23:06.110Z,19.80
2019-05-25T08:24:06.103Z,19.81
2019-05-25T08:25:06.126Z,19.83
2019-05-25T08:26:06.083Z,19.83
2019-05-25T08:27:06.074Z,19.84
2019-05-25T08:28:06.063Z,19.86
2019-05-25T08:29:06.050Z,19.86
2019-05-25T08:30:06.040Z,19.86
2019-05-25T08:31:06.058Z,19.88
2019-05-25T08:32:06.012Z,19.91
2019-05-25T08:33:06.002Z,19.91
2019-05-25T08:34:05.991Z,19.91
2019-05-25T08:35:05.994Z,19.92
2019-05-25T08:36:05.979Z,19.91
2019-05-25T08:37:06.040Z,19.92
2019-05-25T08:38:05.950Z,19.92
2019-05-25T08:39:05.951Z,19.92
2019-05-25T08:40:05.927Z,19.94
2019-05-25T08:41:05.912Z,19.95
2019-05-25T08:42:05.952Z,19.95
2019-05-25T08:43:05.895Z,19.96
2019-05-25T08:44:05.886Z,19.95
2019-05-25T08:45:05.890Z,19.94
2019-05-25T08:46:05.856Z,19.95
2019-05-25T08:47:05.851Z,19.95
2019-05-25T08:48:05.870Z,19.96
2019-05-25T08:49:05.823Z,19.96
2019-05-25T08:50:05.820Z,19.96
2019-05-25T08:51:05.806Z,19.98
2019-05-25T08:52:05.849Z,19.96
2019-05-25T08:53:05.787Z,19.98
2019-05-25T08:54:05.813Z,19.98
2019-05-25T08:55:05.760Z,19.98
2019-05-25T08:56:05.755Z,19.99
2019-05-25T08:57:05.749Z,19.99
2019-05-25T08:58:05.743Z,19.99
2019-05-25T08:59:05.718Z,19.99
2019-05-25T09:00:05.723Z,20.01
2019-05-25T09:01:05.700Z,20.02
2019-05-25T09:02:05.687Z,20.02
2019-05-25T09:03:05.677Z,20.01
2019-05-25T09:04:05.687Z,20.03
2019-05-25T09:05:05.675Z,20.05
2019-05-25T09:06:05.648Z,20.05
2019-05-25T09:07:05.633Z,20.05
2019-05-25T09:08:05.639Z,20.05
2019-05-25T09:09:05.605Z,20.05
2019-05-25T09:10:05.599Z,20.06
2019-05-25T09:11:05.609Z,20.08
2019-05-25T09:12:05.580Z,20.06
2019-05-25T09:13:05.564Z,20.05
2019-05-25T09:14:05.553Z,20.05
2019-05-25T09:15:06.079Z,20.06
2019-05-25T09:16:05.536Z,20.06
2019-05-25T09:17:05.545Z,20.08
2019-05-25T09:18:05.550Z,20.08
2019-05-25T09:19:05.502Z,20.08
2019-05-25T09:20:05.484Z,20.11
2019-05-25T09:21:05.478Z,20.11
2019-05-25T09:22:05.469Z,20.11
2019-05-25T09:23:05.478Z,20.14
2019-05-25T09:24:05.446Z,20.13
2019-05-25T09:25:05.441Z,20.14
2019-05-25T09:26:05.425Z,20.14
2019-05-25T09:27:05.464Z,20.16
2019-05-25T09:28:05.433Z,20.16
2019-05-25T09:29:05.444Z,20.17
2019-05-25T09:30:05.382Z,20.16
2019-05-25T09:31:05.380Z,20.17
2019-05-25T09:32:07.099Z,20.16
2019-05-25T09:33:05.346Z,20.18
2019-05-25T09:34:05.341Z,20.18
2019-05-25T09:35:05.347Z,20.17
2019-05-25T09:36:05.314Z,20.18
2019-05-25T09:37:05.302Z,20.18
2019-05-25T09:38:05.291Z,20.17
2019-05-25T09:39:05.281Z,20.17
2019-05-25T09:40:05.305Z,20.17
2019-05-25T09:41:05.261Z,20.17
2019-05-25T09:42:05.249Z,20.20
2019-05-25T09:43:05.242Z,20.18
2019-05-25T09:44:05.223Z,20.20
2019-05-25T09:45:05.213Z,20.18
2019-05-25T09:46:05.239Z,20.18
2019-05-25T09:47:05.191Z,20.18
2019-05-25T09:48:05.190Z,20.20
2019-05-25T09:49:05.171Z,20.17
2019-05-25T09:50:05.164Z,20.18
2019-05-25T09:51:05.151Z,20.18
2019-05-25T09:52:05.159Z,20.18
2019-05-25T09:53:05.127Z,20.17
2019-05-25T09:54:05.124Z,20.18
2019-05-25T09:55:05.100Z,20.18
2019-05-25T09:56:05.089Z,20.20
2019-05-25T09:57:05.100Z,20.21
2019-05-25T09:58:05.072Z,20.21
2019-05-25T09:59:19.287Z,20.21
2019-05-25T10:00:06.051Z,20.23
2019-05-25T10:01:05.041Z,20.21
2019-05-25T10:02:05.053Z,20.21
2019-05-25T10:03:05.023Z,20.23
2019-05-25T10:04:05.029Z,20.24
2019-05-25T10:05:04.990Z,20.23
2019-05-25T10:06:12.203Z,20.23
2019-05-25T10:07:06.013Z,20.24
2019-05-25T10:08:04.964Z,20.24
2019-05-25T10:09:04.954Z,20.26
2019-05-25T10:10:04.944Z,20.24
2019-05-25T10:11:04.934Z,20.24
2019-05-25T10:12:04.917Z,20.26
2019-05-25T10:13:04.934Z,20.26
2019-05-25T10:14:04.892Z,20.26
2019-05-25T10:15:04.891Z,20.28
2019-05-25T10:16:04.881Z,20.28
2019-05-25T10:17:04.873Z,20.26
2019-05-25T10:18:04.850Z,20.26
2019-05-25T10:19:04.863Z,20.26
2019-05-25T10:20:04.833Z,20.26
2019-05-25T10:21:04.817Z,20.26
2019-05-25T10:22:04.810Z,20.24
2019-05-25T10:23:04.865Z,20.26
2019-05-25T10:24:04.807Z,20.24
2019-05-25T10:25:04.773Z,20.23
2019-05-25T10:26:04.764Z,20.23
2019-05-25T10:27:04.773Z,20.24
2019-05-25T10:28:04.742Z,20.24
2019-05-25T10:29:04.748Z,20.24
2019-05-25T10:30:04.719Z,20.23
2019-05-25T10:31:04.707Z,20.23
2019-05-25T10:32:04.696Z,20.23
2019-05-25T10:33:04.694Z,20.24
2019-05-25T10:34:04.695Z,20.23
2019-05-25T10:35:04.663Z,20.24
2019-05-25T10:36:04.651Z,20.23
2019-05-25T10:37:04.642Z,20.24
2019-05-25T10:38:04.650Z,20.24
2019-05-25T10:39:04.623Z,20.24
2019-05-25T10:40:04.618Z,20.26
2019-05-25T10:41:04.599Z,20.26
2019-05-25T10:42:04.590Z,20.26
2019-05-25T10:43:04.573Z,20.26
2019-05-25T10:44:04.591Z,20.26
2019-05-25T10:45:04.562Z,20.26
2019-05-25T10:46:04.547Z,20.28
2019-05-25T10:47:04.534Z,20.24
2019-05-25T10:48:04.542Z,20.26
2019-05-25T10:49:04.538Z,20.26
2019-05-25T10:50:04.513Z,20.26
2019-05-25T10:51:04.488Z,20.29
2019-05-25T10:52:04.481Z,20.29
2019-05-25T10:53:04.475Z,20.29
2019-05-25T10:54:04.479Z,20.32
2019-05-25T10:55:04.448Z,20.32
2019-05-25T10:56:04.458Z,20.32
2019-05-25T10:57:04.420Z,20.33
2019-05-25T10:58:04.413Z,20.33
2019-05-25T10:59:04.444Z,20.35
2019-05-25T11:00:04.387Z,20.36
2019-05-25T11:01:04.380Z,20.35
2019-05-25T11:02:04.371Z,20.35
2019-05-25T11:03:04.362Z,20.36
2019-05-25T11:04:04.348Z,20.35
2019-05-25T11:05:04.366Z,20.35
2019-05-25T11:06:04.327Z,20.35
2019-05-25T11:07:04.314Z,20.35
2019-05-25T11:08:04.301Z,20.36
2019-05-25T11:09:04.297Z,20.36
2019-05-25T11:10:04.300Z,20.35
2019-05-25T11:11:04.288Z,20.36
2019-05-25T11:12:04.254Z,20.35
2019-05-25T11:13:04.254Z,20.36
2019-05-25T11:14:04.275Z,20.36
2019-05-25T11:15:04.229Z,20.36
2019-05-25T11:16:04.215Z,20.36
2019-05-25T11:17:04.199Z,20.38
2019-05-25T11:18:04.193Z,20.36
2019-05-25T11:19:04.184Z,20.38
2019-05-25T11:20:04.191Z,20.38
2019-05-25T11:21:04.160Z,20.38
2019-05-25T11:22:04.145Z,20.39
2019-05-25T11:23:04.148Z,20.38
2019-05-25T11:24:04.161Z,20.39
2019-05-25T11:25:04.111Z,20.41
2019-05-25T11:26:04.104Z,20.39
2019-05-25T11:27:04.094Z,20.39
2019-05-25T11:28:04.081Z,20.41
2019-05-25T11:29:04.072Z,20.39
2019-05-25T11:30:08.947Z,20.41
2019-05-25T11:31:05.051Z,20.39
2019-05-25T11:32:05.639Z,20.38
2019-05-25T11:33:04.032Z,20.38
2019-05-25T11:34:04.027Z,20.39
2019-05-25T11:35:04.021Z,20.38
2019-05-25T11:36:04.025Z,20.39
2019-05-25T11:37:03.981Z,20.39
2019-05-25T11:38:03.974Z,20.38
2019-05-25T11:39:03.977Z,20.41
2019-05-25T11:40:03.976Z,20.38
2019-05-25T11:41:03.942Z,20.39
2019-05-25T11:42:03.933Z,20.38
2019-05-25T11:43:03.914Z,20.36
2019-05-25T11:44:03.903Z,20.36
2019-05-25T11:45:03.899Z,20.36
2019-05-25T11:46:03.914Z,20.36
2019-05-25T11:47:03.872Z,20.36
2019-05-25T11:48:03.870Z,20.38
2019-05-25T11:49:03.856Z,20.39
2019-05-25T11:50:03.846Z,20.39
2019-05-25T11:51:03.864Z,20.39
2019-05-25T11:52:03.817Z,20.41
2019-05-25T11:53:05.882Z,20.41
2019-05-25T11:54:03.797Z,20.41
2019-05-25T11:55:03.783Z,20.41
2019-05-25T11:56:03.772Z,20.42
2019-05-25T11:57:03.787Z,20.41
2019-05-25T11:58:03.829Z,20.39
2019-05-25T11:59:03.765Z,20.41
2019-05-25T12:00:03.729Z,20.41
2019-05-25T12:01:03.719Z,20.41
2019-05-25T12:02:03.727Z,20.41
2019-05-25T12:03:03.699Z,20.42
2019-05-25T12:04:03.689Z,20.39
2019-05-25T12:05:03.674Z,20.42
2019-05-25T12:06:03.666Z,20.42
2019-05-25T12:07:03.681Z,20.41
2019-05-25T12:08:03.647Z,20.42
2019-05-25T12:09:03.655Z,20.41
2019-05-25T12:10:03.620Z,20.42
2019-05-25T12:11:03.609Z,20.43
2019-05-25T12:12:03.603Z,20.42
2019-05-25T12:13:03.608Z,20.42
2019-05-25T12:14:03.582Z,20.42
2019-05-25T12:15:03.568Z,20.41
2019-05-25T12:16:03.574Z,20.42
2019-05-25T12:17:03.890Z,20.41
2019-05-25T12:18:03.590Z,20.41
2019-05-25T12:19:03.522Z,20.41
2019-05-25T12:20:03.513Z,20.41
2019-05-25T12:21:03.523Z,20.41
2019-05-25T12:22:03.516Z,20.41
2019-05-25T12:23:03.975Z,20.41
2019-05-25T12:24:03.470Z,20.39
2019-05-25T12:25:03.486Z,20.39
2019-05-25T12:26:03.446Z,20.41
2019-05-25T12:27:03.435Z,20.42
2019-05-25T12:28:03.428Z,20.43
2019-05-25T12:29:03.419Z,20.43
2019-05-25T12:30:03.407Z,20.43
2019-05-25T12:31:03.410Z,20.47
2019-05-25T12:32:04.558Z,20.43
2019-05-25T12:33:03.398Z,20.47
2019-05-25T12:34:03.359Z,20.48
2019-05-25T12:35:03.350Z,20.43
2019-05-25T12:36:03.338Z,20.48
2019-05-25T12:37:03.326Z,20.47
2019-05-25T12:38:03.316Z,20.47
2019-05-25T12:39:03.339Z,20.47
2019-05-25T12:40:03.287Z,20.47
2019-05-25T12:41:03.288Z,20.47
2019-05-25T12:42:03.266Z,20.47
2019-05-25T12:43:03.262Z,20.48
2019-05-25T12:44:03.249Z,20.48
2019-05-25T12:45:03.283Z,20.47
2019-05-25T12:46:03.222Z,20.47
2019-05-25T12:47:03.212Z,20.48
2019-05-25T12:48:03.203Z,20.50
2019-05-25T12:49:03.198Z,20.50
2019-05-25T12:50:03.208Z,20.50
2019-05-25T12:51:03.169Z,20.50
2019-05-25T12:52:03.157Z,20.51